createdAt,value
2019-05-25T00:01:01.935Z,0.00
2019-05-25T00:02:01.940Z,0.00
2019-05-25T00:03:54.853Z,0.00
2019-05-25T00:04:54.864Z,0.00
2019-05-25T00:06:47.777Z,0.00
2019-05-25T00:07:47.784Z,0.00
2019-05-25T00:09:41.196Z,0.00
2019-05-25T00:10:41.209Z,0.00
2019-05-25T00:12:34.130Z,0.00
2019-05-25T00:13:34.127Z,0.00
2019-05-25T00:15:27.539Z,0.00
2019-05-25T00:16:27.545Z,0.00
2019-05-25T00:18:20.459Z,0.00
2019-05-25T00:19:20.470Z,0.00
2019-05-25T00:21:14.313Z,0.00
2019-05-25T00:22:13.393Z,0.00
2019-05-25T00:24:12.094Z,0.00
2019-05-25T00:25:06.809Z,0.00
2019-05-25T00:27:00.239Z,0.00
2019-05-25T00:28:00.224Z,0.00
2019-05-25T00:29:53.139Z,0.00
2019-05-25T00:30:53.147Z,0.00
2019-05-25T00:32:46.063Z,0.00
2019-05-25T00:33:46.069Z,0.00
2019-05-25T00:35:38.983Z,0.00
2019-05-25T00:36:38.990Z,0.00
2019-05-25T00:38:31.900Z,0.00
2019-05-25T00:39:31.909Z,0.00
2019-05-25T00:41:25.327Z,0.00
2019-05-25T00:42:25.327Z,0.00
2019-05-25T00:44:18.238Z,0.00
2019-05-25T00:45:18.255Z,0.00
2019-05-25T00:47:11.161Z,0.00
2019-05-25T00:48:11.169Z,0.00
2019-05-25T00:50:04.079Z,0.00
2019-05-25T00:51:04.092Z,0.00
2019-05-25T00:52:57.011Z,0.00
2019-05-25T00:53:57.011Z,0.00
2019-05-25T00:55:49.924Z,0.00
2019-05-25T00:56:49.931Z,0.00
2019-05-25T00:58:42.844Z,0.00
2019-05-25T00:59:42.851Z,0.00
2019-05-25T01:01:35.765Z,0.00
2019-05-25T01:02:35.770Z,0.00
2019-05-25T01:04:28.677Z,0.00
2019-05-25T01:05:28.689Z,0.00
2019-05-25T01:07:21.602Z,0.00
2019-05-25T01:08:21.606Z,0.00
2019-05-25T01:10:14.516Z,0.00
2019-05-25T01:11:14.525Z,0.00
2019-05-25T01:13:07.442Z,0.00
2019-05-25T01:14:07.444Z,0.00
2019-05-25T01:16:00.862Z,0.00
2019-05-25T01:17:00.857Z,0.00
2019-05-25T01:18:53.771Z,0.00
2019-05-25T01:19:53.778Z,0.00
2019-05-25T01:21:46.699Z,0.00
2019-05-25T01:22:46.703Z,0.00
2019-05-25T01:24:44.537Z,0.00
2019-05-25T01:25:39.624Z,0.00
2019-05-25T01:27:32.537Z,0.00
2019-05-25T01:28:32.542Z,0.00
2019-05-25T01:30:25.944Z,0.00
2019-05-25T01:31:25.956Z,0.00
2019-05-25T01:33:18.868Z,0.00
2019-05-25T01:34:18.874Z,0.00
2019-05-25T01:36:11.789Z,0.00
2019-05-25T01:37:11.792Z,0.00
2019-05-25T01:39:04.701Z,0.00
2019-05-25T01:40:04.711Z,0.00
2019-05-25T01:41:57.624Z,0.00
2019-05-25T01:42:57.627Z,0.00
2019-05-25T01:44:50.540Z,0.00
2019-05-25T01:45:50.548Z,0.00
2019-05-25T01:47:43.467Z,0.00
2019-05-25T01:48:43.466Z,0.00
2019-05-25T01:50:36.375Z,0.00
2019-05-25T01:51:36.383Z,0.00
2019-05-25T01:53:29.790Z,0.00
2019-05-25T01:54:29.797Z,0.00
2019-05-25T01:56:23.201Z,0.00
2019-05-25T01:57:23.207Z,0.00
2019-05-25T01:59:16.115Z,0.00
2019-05-25T02:00:16.127Z,0.00
2019-05-25T02:02:09.039Z,0.00
2019-05-25T02:03:09.090Z,0.00
2019-05-25T02:05:02.453Z,0.00
2019-05-25T02:06:02.459Z,0.00
2019-05-25T02:07:55.371Z,0.00
2019-05-25T02:08:55.377Z,0.00
2019-05-25T02:10:48.301Z,0.00
2019-05-25T02:11:48.293Z,0.00
2019-05-25T02:13:41.207Z,0.00
2019-05-25T02:14:41.215Z,0.00
2019-05-25T02:16:34.619Z,0.00
2019-05-25T02:17:34.625Z,0.00
2019-05-25T02:19:27.541Z,0.00
2019-05-25T02:20:27.591Z,0.00
2019-05-25T02:22:20.459Z,0.00
2019-05-25T02:23:20.479Z,0.00
2019-05-25T02:25:18.284Z,0.00
2019-05-25T02:26:13.877Z,0.00
2019-05-25T02:28:06.792Z,0.00
2019-05-25T02:29:06.800Z,0.00
2019-05-25T02:30:59.705Z,0.00
2019-05-25T02:31:59.716Z,0.00
2019-05-25T02:33:53.120Z,0.00
2019-05-25T02:34:53.129Z,0.00
2019-05-25T02:36:46.067Z,4.00
2019-05-25T02:37:46.045Z,4.00
2019-05-25T02:39:38.954Z,4.00
2019-05-25T02:40:38.965Z,0.00
2019-05-25T02:42:31.886Z,4.00
2019-05-25T02:43:31.897Z,4.00
2019-05-25T02:45:24.800Z,4.00
2019-05-25T02:46:24.810Z,8.00
2019-05-25T02:48:17.726Z,4.00
2019-05-25T02:49:17.730Z,8.00
2019-05-25T02:51:10.645Z,8.00
2019-05-25T02:52:10.646Z,8.00
2019-05-25T02:54:03.555Z,8.00
2019-05-25T02:55:03.563Z,8.00
2019-05-25T02:56:56.474Z,8.00
2019-05-25T02:57:56.489Z,8.00
2019-05-25T02:59:49.388Z,12.00
2019-05-25T03:00:49.397Z,12.00
2019-05-25T03:02:42.323Z,12.00
2019-05-25T03:03:42.315Z,16.00
2019-05-25T03:05:35.223Z,20.00
2019-05-25T03:06:35.233Z,20.00
2019-05-25T03:08:28.636Z,20.00
2019-05-25T03:09:28.647Z,24.00
2019-05-25T03:11:21.559Z,28.00
2019-05-25T03:12:21.563Z,32.00
2019-05-25T03:14:14.474Z,40.00
2019-05-25T03:15:14.483Z,44.00
2019-05-25T03:17:07.396Z,48.00
2019-05-25T03:18:07.400Z,52.00
2019-05-25T03:20:00.308Z,60.00
2019-05-25T03:21:00.318Z,64.00
2019-05-25T03:22:53.231Z,68.00
2019-05-25T03:23:53.237Z,76.00
2019-05-25T03:25:49.534Z,88.00
2019-05-25T03:26:46.159Z,92.00
2019-05-25T03:28:39.575Z,108.00
2019-05-25T03:29:39.585Z,108.00
2019-05-25T03:31:32.988Z,124.00
2019-05-25T03:32:32.998Z,136.00
2019-05-25T03:34:25.902Z,164.00
2019-05-25T03:35:25.924Z,172.00
2019-05-25T03:37:18.843Z,188.00
2019-05-25T03:38:18.840Z,196.00
2019-05-25T03:40:11.748Z,216.00
2019-05-25T03:41:11.756Z,240.00
2019-05-25T03:43:04.668Z,304.00
2019-05-25T03:44:04.673Z,344.00
2019-05-25T03:45:57.580Z,404.00
2019-05-25T03:46:57.590Z,416.00
2019-05-25T03:48:50.504Z,448.00
2019-05-25T03:49:50.511Z,452.00
2019-05-25T03:51:43.425Z,436.00
2019-05-25T03:52:43.432Z,444.00
2019-05-25T03:54:36.335Z,604.00
2019-05-25T03:55:36.347Z,672.00
2019-05-25T03:57:29.266Z,684.00
2019-05-25T03:58:29.266Z,720.00
2019-05-25T04:00:22.177Z,780.00
2019-05-25T04:01:22.187Z,764.00
2019-05-25T04:03:15.099Z,708.00
2019-05-25T04:04:15.105Z,656.00
2019-05-25T04:06:08.008Z,672.00
2019-05-25T04:07:08.021Z,696.00
2019-05-25T04:09:00.940Z,808.00
2019-05-25T04:10:01.078Z,832.00
2019-05-25T04:11:53.856Z,752.00
2019-05-25T04:12:53.863Z,764.00
2019-05-25T04:14:46.774Z,864.00
2019-05-25T04:15:46.782Z,960.00
2019-05-25T04:17:39.699Z,1272.00
2019-05-25T04:18:39.699Z,1424.00
2019-05-25T04:20:32.610Z,1752.00
2019-05-25T04:21:32.618Z,1652.00
2019-05-25T04:23:25.537Z,1736.00
2019-05-25T04:24:25.540Z,1808.00
2019-05-25T04:26:22.365Z,1716.00
2019-05-25T04:27:18.457Z,1744.00
2019-05-25T04:29:11.372Z,2128.00
2019-05-25T04:30:11.378Z,2448.00
2019-05-25T04:32:04.296Z,2432.00
2019-05-25T04:33:04.300Z,2124.00
2019-05-25T04:34:57.209Z,2204.00
2019-05-25T04:35:57.221Z,2408.00
2019-05-25T04:37:50.140Z,2088.00
2019-05-25T04:38:50.421Z,1948.00
2019-05-25T04:40:43.053Z,2148.00
2019-05-25T04:41:43.063Z,2360.00
2019-05-25T04:43:35.981Z,2980.00
2019-05-25T04:44:35.984Z,2756.00
2019-05-25T04:46:28.894Z,3064.00
2019-05-25T04:47:28.906Z,3460.00
2019-05-25T04:49:21.824Z,3316.00
2019-05-25T04:50:21.830Z,2884.00
2019-05-25T04:52:14.744Z,3036.00
2019-05-25T04:53:14.751Z,2988.00
2019-05-25T04:55:07.660Z,2632.00
2019-05-25T04:56:07.727Z,2324.00
2019-05-25T04:58:00.596Z,2036.00
2019-05-25T04:59:00.600Z,1912.00
2019-05-25T05:00:53.511Z,1780.00
2019-05-25T05:01:53.524Z,1780.00
2019-05-25T05:03:46.437Z,1764.00
2019-05-25T05:04:46.448Z,1860.00
2019-05-25T05:06:39.362Z,1868.00
2019-05-25T05:07:39.368Z,2016.00
2019-05-25T05:09:32.289Z,2664.00
2019-05-25T05:10:32.301Z,2636.00
2019-05-25T05:12:25.210Z,2992.00
2019-05-25T05:13:25.215Z,3120.00
2019-05-25T05:15:18.127Z,2836.00
2019-05-25T05:16:18.180Z,2820.00
2019-05-25T05:18:11.069Z,2628.00
2019-05-25T05:19:11.059Z,2244.00
2019-05-25T05:21:03.982Z,1824.00
2019-05-25T05:22:06.029Z,1856.00
2019-05-25T05:23:56.901Z,2040.00
2019-05-25T05:24:56.907Z,2176.00
2019-05-25T05:26:56.005Z,2220.00
2019-05-25T05:27:49.830Z,2176.00
2019-05-25T05:29:42.748Z,2080.00
2019-05-25T05:30:42.753Z,2100.00
2019-05-25T05:32:35.666Z,2112.00
2019-05-25T05:33:35.671Z,2004.00
2019-05-25T05:35:28.582Z,1908.00
2019-05-25T05:36:28.594Z,1984.00
2019-05-25T05:38:21.513Z,2136.00
2019-05-25T05:39:21.518Z,2308.00
2019-05-25T05:41:14.963Z,2616.00
2019-05-25T05:42:14.933Z,2736.00
2019-05-25T05:44:07.850Z,3040.00
2019-05-25T05:45:07.856Z,3216.00
2019-05-25T05:47:00.771Z,3312.00
2019-05-25T05:48:00.784Z,3356.00
2019-05-25T05:49:53.713Z,3568.00
2019-05-25T05:50:53.705Z,3712.00
2019-05-25T05:52:46.618Z,3880.00
2019-05-25T05:53:46.623Z,4072.00
2019-05-25T05:55:39.531Z,4560.00
2019-05-25T05:56:39.546Z,4712.00
2019-05-25T05:58:32.956Z,4644.00
2019-05-25T05:59:32.961Z,4560.00
2019-05-25T06:01:25.876Z,4236.00
2019-05-25T06:02:25.885Z,4024.00
2019-05-25T06:04:18.799Z,4056.00
2019-05-25T06:05:18.804Z,4320.00
2019-05-25T06:07:11.718Z,4864.00
2019-05-25T06:08:11.730Z,5040.00
2019-05-25T06:10:04.648Z,5188.00
2019-05-25T06:11:04.654Z,5352.00
2019-05-25T06:12:57.573Z,5460.00
2019-05-25T06:13:57.579Z,5596.00
2019-05-25T06:15:50.486Z,5740.00
2019-05-25T06:16:50.500Z,5752.00
2019-05-25T06:18:43.911Z,5888.00
2019-05-25T06:19:43.918Z,5848.00
2019-05-25T06:21:36.833Z,5876.00
2019-05-25T06:22:36.846Z,5980.00
2019-05-25T06:24:29.763Z,6204.00
2019-05-25T06:25:29.777Z,6248.00
2019-05-25T06:27:27.610Z,6068.00
2019-05-25T06:28:23.193Z,6140.00
2019-05-25T06:30:16.112Z,6484.00
2019-05-25T06:31:16.122Z,6568.00
2019-05-25T06:33:09.032Z,6716.00
2019-05-25T06:34:09.044Z,6792.00
2019-05-25T06:36:01.955Z,6928.00
2019-05-25T06:37:01.974Z,6908.00
2019-05-25T06:38:54.882Z,6852.00
2019-05-25T06:39:54.889Z,6688.00
2019-05-25T06:41:47.802Z,6220.00
2019-05-25T06:42:47.817Z,6480.00
2019-05-25T06:44:40.734Z,7348.00
2019-05-25T06:45:40.739Z,7720.00
2019-05-25T06:47:33.653Z,8136.00
2019-05-25T06:48:33.666Z,8140.00
2019-05-25T06:50:26.580Z,7896.00
2019-05-25T06:51:26.590Z,7400.00
2019-05-25T06:53:19.507Z,6816.00
2019-05-25T06:54:19.515Z,6880.00
2019-05-25T06:56:12.426Z,7952.00
2019-05-25T06:57:12.503Z,8124.00
2019-05-25T06:59:05.360Z,7304.00
2019-05-25T07:00:05.367Z,7584.00
2019-05-25T07:01:58.281Z,8084.00
2019-05-25T07:02:58.294Z,8208.00
2019-05-25T07:04:51.521Z,8972.00
2019-05-25T07:05:51.221Z,9236.00
2019-05-25T07:07:44.204Z,10612.00
2019-05-25T07:08:44.149Z,11268.00
2019-05-25T07:10:37.065Z,12940.00
2019-05-25T07:11:37.073Z,13072.00
2019-05-25T07:13:29.993Z,12920.00
2019-05-25T07:14:30.006Z,13432.00
2019-05-25T07:16:22.914Z,20896.00
2019-05-25T07:17:22.927Z,16548.00
2019-05-25T07:19:15.850Z,16180.00
2019-05-25T07:20:15.860Z,15288.00
2019-05-25T07:22:08.774Z,10176.00
2019-05-25T07:23:08.789Z,9432.00
2019-05-25T07:25:01.711Z,8640.00
2019-05-25T07:26:01.718Z,9144.00
2019-05-25T07:27:59.474Z,11744.00
2019-05-25T07:28:54.649Z,12904.00
2019-05-25T07:30:47.573Z,14552.00
2019-05-25T07:31:47.579Z,13996.00
2019-05-25T07:33:40.499Z,12244.00
2019-05-25T07:34:40.511Z,12860.00
2019-05-25T07:36:33.424Z,14032.00
2019-05-25T07:37:33.441Z,14572.00
2019-05-25T07:39:26.371Z,14120.00
2019-05-25T07:40:26.371Z,13260.00
2019-05-25T07:42:20.090Z,11808.00
2019-05-25T07:43:19.303Z,11292.00
2019-05-25T07:45:12.718Z,12008.00
2019-05-25T07:46:12.730Z,12984.00
2019-05-25T07:48:05.667Z,15008.00
2019-05-25T07:49:05.692Z,14260.00
2019-05-25T07:50:58.603Z,10560.00
2019-05-25T07:51:58.611Z,9168.00
2019-05-25T07:53:51.531Z,8284.00
2019-05-25T07:54:51.542Z,8424.00
2019-05-25T07:56:44.459Z,9124.00
2019-05-25T07:57:44.473Z,9708.00
2019-05-25T07:59:37.433Z,10904.00
2019-05-25T08:00:37.402Z,11436.00
2019-05-25T08:02:30.334Z,11684.00
2019-05-25T08:03:30.352Z,11460.00
2019-05-25T08:05:23.328Z,11504.00
2019-05-25T08:06:23.291Z,11780.00
2019-05-25T08:08:16.225Z,12760.00
2019-05-25T08:09:16.346Z,13380.00
2019-05-25T08:11:09.218Z,14576.00
2019-05-25T08:12:09.181Z,15268.00
2019-05-25T08:14:02.179Z,15428.00
2019-05-25T08:15:02.192Z,14744.00
2019-05-25T08:16:55.105Z,13524.00
2019-05-25T08:17:55.119Z,13392.00
2019-05-25T08:19:48.115Z,12884.00
2019-05-25T08:20:48.050Z,12892.00
2019-05-25T08:22:41.029Z,12448.00
2019-05-25T08:23:41.034Z,11984.00
2019-05-25T08:25:34.524Z,11252.00
2019-05-25T08:26:33.970Z,10856.00
2019-05-25T08:28:32.925Z,10508.00
2019-05-25T08:29:26.900Z,10620.00
2019-05-25T08:31:19.824Z,11396.00
2019-05-25T08:32:19.833Z,11728.00
2019-05-25T08:34:12.758Z,11868.00
2019-05-25T08:35:12.767Z,12008.00
2019-05-25T08:37:05.682Z,12516.00
2019-05-25T08:38:05.695Z,12828.00
2019-05-25T08:39:58.634Z,13796.00
2019-05-25T08:40:58.635Z,14044.00
2019-05-25T08:42:51.557Z,13864.00
2019-05-25T08:43:51.563Z,13880.00
2019-05-25T08:45:44.998Z,14908.00
2019-05-25T08:46:44.991Z,15196.00
2019-05-25T08:48:37.937Z,15032.00
2019-05-25T08:49:37.948Z,15312.00
2019-05-25T08:51:30.870Z,14920.00
2019-05-25T08:52:30.885Z,15124.00
2019-05-25T08:54:23.810Z,16156.00
2019-05-25T08:55:23.846Z,16168.00
2019-05-25T08:57:18.717Z,16652.00
2019-05-25T08:58:16.798Z,16876.00
2019-05-25T09:00:09.728Z,15748.00
2019-05-25T09:01:09.740Z,14944.00
2019-05-25T09:03:02.686Z,13352.00
2019-05-25T09:04:02.702Z,12960.00
2019-05-25T09:05:55.625Z,13252.00
2019-05-25T09:06:55.633Z,14332.00
2019-05-25T09:08:48.564Z,15848.00
2019-05-25T09:09:48.568Z,15688.00
2019-05-25T09:11:41.495Z,15032.00
2019-05-25T09:12:41.507Z,14244.00
2019-05-25T09:14:34.434Z,12560.00
2019-05-25T09:15:34.444Z,12196.00
2019-05-25T09:17:27.366Z,11700.00
2019-05-25T09:18:27.378Z,10800.00
2019-05-25T09:20:20.307Z,8956.00
2019-05-25T09:21:20.318Z,8372.00
2019-05-25T09:23:13.236Z,7216.00
2019-05-25T09:24:13.254Z,7212.00
2019-05-25T09:26:06.212Z,9064.00
2019-05-25T09:27:06.188Z,10620.00
2019-05-25T09:29:04.621Z,14668.00
2019-05-25T09:29:59.122Z,16112.00
2019-05-25T09:31:52.091Z,16960.00
2019-05-25T09:32:52.059Z,15700.00
2019-05-25T09:34:44.984Z,14784.00
2019-05-25T09:35:46.640Z,14840.00
2019-05-25T09:37:37.918Z,15076.00
2019-05-25T09:38:37.931Z,14876.00
2019-05-25T09:40:30.881Z,14848.00
2019-05-25T09:41:30.879Z,14736.00
2019-05-25T09:43:23.793Z,14580.00
2019-05-25T09:44:23.805Z,15416.00
2019-05-25T09:46:16.731Z,16136.00
2019-05-25T09:47:16.741Z,15888.00
2019-05-25T09:49:09.673Z,15516.00
2019-05-25T09:50:09.683Z,15348.00
2019-05-25T09:52:02.602Z,14616.00
2019-05-25T09:53:02.615Z,14520.00
2019-05-25T09:54:55.818Z,14836.00
2019-05-25T09:55:55.554Z,14696.00
2019-05-25T09:57:48.476Z,13832.00
2019-05-25T09:58:48.494Z,14172.00
2019-05-25T10:00:41.419Z,15952.00
2019-05-25T10:01:41.431Z,16176.00
2019-05-25T10:03:34.355Z,17312.00
2019-05-25T10:04:34.371Z,16960.00
2019-05-25T10:06:27.300Z,16492.00
2019-05-25T10:07:27.309Z,16548.00
2019-05-25T10:09:20.250Z,16252.00
2019-05-25T10:10:20.253Z,16436.00
2019-05-25T10:12:16.188Z,15540.00
2019-05-25T10:13:13.192Z,14912.00
2019-05-25T10:15:06.124Z,13976.00
2019-05-25T10:16:06.147Z,13916.00
2019-05-25T10:17:59.098Z,13884.00
2019-05-25T10:18:59.070Z,13116.00
2019-05-25T10:20:51.998Z,11588.00
2019-05-25T10:21:52.034Z,10836.00
2019-05-25T10:23:44.934Z,9448.00
2019-05-25T10:24:44.945Z,9160.00
2019-05-25T10:26:37.870Z,7912.00
2019-05-25T10:27:37.882Z,7372.00
2019-05-25T10:29:37.280Z,7308.00
2019-05-25T10:30:30.823Z,7280.00
2019-05-25T10:32:23.747Z,6868.00
2019-05-25T10:33:23.803Z,6616.00
2019-05-25T10:35:16.689Z,6444.00
2019-05-25T10:36:16.698Z,6912.00
2019-05-25T10:38:09.631Z,7160.00
2019-05-25T10:39:09.637Z,7416.00
2019-05-25T10:41:02.657Z,7988.00
2019-05-25T10:42:02.691Z,8568.00
2019-05-25T10:43:55.544Z,9652.00
2019-05-25T10:44:55.568Z,11044.00
2019-05-25T10:46:48.480Z,12840.00
2019-05-25T10:47:48.490Z,12144.00
2019-05-25T10:49:41.419Z,11144.00
2019-05-25T10:50:41.432Z,11356.00
2019-05-25T10:52:34.354Z,10604.00
2019-05-25T10:53:34.367Z,9632.00
2019-05-25T10:55:27.291Z,9452.00
2019-05-25T10:56:27.301Z,10520.00
2019-05-25T10:58:20.222Z,11696.00
2019-05-25T10:59:20.237Z,12680.00
2019-05-25T11:01:13.177Z,14268.00
2019-05-25T11:02:13.171Z,14492.00
2019-05-25T11:04:07.104Z,14392.00
2019-05-25T11:05:07.106Z,13484.00
2019-05-25T11:07:00.033Z,12360.00
2019-05-25T11:08:00.044Z,12200.00
2019-05-25T11:09:53.461Z,13256.00
2019-05-25T11:10:53.474Z,14348.00
2019-05-25T11:12:46.396Z,14204.00
2019-05-25T11:13:46.414Z,13636.00
2019-05-25T11:15:39.435Z,12968.00
2019-05-25T11:16:39.370Z,12464.00
2019-05-25T11:18:32.292Z,12196.00
2019-05-25T11:19:32.335Z,12412.00
2019-05-25T11:21:25.244Z,11808.00
2019-05-25T11:22:25.254Z,11664.00
2019-05-25T11:24:18.198Z,11596.00
2019-05-25T11:25:18.198Z,11980.00
2019-05-25T11:27:11.123Z,13340.00
2019-05-25T11:28:11.225Z,14716.00
2019-05-25T11:30:08.930Z,15216.00
2019-05-25T11:31:04.075Z,14488.00
2019-05-25T11:32:56.997Z,13624.00
2019-05-25T11:33:57.016Z,13824.00
2019-05-25T11:35:49.935Z,14224.00
2019-05-25T11:36:49.949Z,14400.00
2019-05-25T11:38:42.921Z,14136.00
2019-05-25T11:39:42.890Z,14168.00
2019-05-25T11:41:35.931Z,14228.00
2019-05-25T11:42:35.834Z,14096.00
2019-05-25T11:44:28.753Z,14132.00
2019-05-25T11:45:28.771Z,13996.00
2019-05-25T11:47:21.736Z,13456.00
2019-05-25T11:48:21.710Z,13556.00
2019-05-25T11:50:14.633Z,14964.00
2019-05-25T11:51:14.648Z,15444.00
2019-05-25T11:53:07.569Z,15756.00
2019-05-25T11:54:07.589Z,15864.00
2019-05-25T11:56:00.515Z,15828.00
2019-05-25T11:57:00.526Z,15444.00
2019-05-25T11:58:53.951Z,15336.00
2019-05-25T11:59:53.982Z,15372.00
2019-05-25T12:01:46.951Z,15924.00
2019-05-25T12:02:46.960Z,15820.00
2019-05-25T12:04:39.915Z,14144.00
2019-05-25T12:05:39.941Z,13408.00
2019-05-25T12:07:32.881Z,13308.00
2019-05-25T12:08:32.841Z,13828.00
2019-05-25T12:10:25.958Z,14340.00
2019-05-25T12:11:25.873Z,14496.00
2019-05-25T12:13:18.814Z,14620.00
2019-05-25T12:14:18.773Z,14680.00
2019-05-25T12:16:11.781Z,14948.00
2019-05-25T12:17:11.723Z,15312.00
2019-05-25T12:19:04.685Z,15344.00
2019-05-25T12:20:04.665Z,15140.00
2019-05-25T12:21:57.687Z,14440.00
2019-05-25T12:22:57.608Z,14132.00
2019-05-25T12:24:50.540Z,13588.00
2019-05-25T12:25:50.585Z,13432.00
2019-05-25T12:27:43.494Z,13164.00
2019-05-25T12:28:43.492Z,13104.00
2019-05-25T12:30:40.918Z,13476.00
2019-05-25T12:31:36.516Z,13760.00
2019-05-25T12:33:29.429Z,14500.00
2019-05-25T12:34:29.578Z,14796.00
2019-05-25T12:36:22.533Z,15276.00
2019-05-25T12:37:22.387Z,15312.00
2019-05-25T12:39:15.321Z,14956.00
2019-05-25T12:40:15.326Z,14580.00
2019-05-25T12:42:08.270Z,14076.00
2019-05-25T12:43:08.806Z,13832.00
2019-05-25T12:45:01.257Z,13636.00
2019-05-25T12:46:01.208Z,13592.00
2019-05-25T12:47:54.496Z,13504.00
2019-05-25T12:48:54.205Z,13704.00
2019-05-25T12:50:47.142Z,13832.00
2019-05-25T12:51:47.147Z,13624.00
2019-05-25T12:53:40.067Z,12948.00
2019-05-25T12:54:40.180Z,12464.00
2019-05-25T12:56:33.016Z,11372.00
2019-05-25T12:57:33.029Z,10852.00
2019-05-25T12:59:25.964Z,9840.00
2019-05-25T13:00:25.971Z,9480.00
2019-05-25T13:02:18.902Z,9504.00
2019-05-25T13:03:18.913Z,9908.00
2019-05-25T13:05:11.859Z,10920.00
2019-05-25T13:06:11.873Z,11328.00
2019-05-25T13:08:04.802Z,12332.00
2019-05-25T13:09:04.819Z,12756.00
2019-05-25T13:10:57.748Z,13000.00
2019-05-25T13:11:57.755Z,13352.00
2019-05-25T13:13:50.677Z,13960.00
2019-05-25T13:14:50.693Z,13904.00
2019-05-25T13:16:43.618Z,13264.00
2019-05-25T13:17:43.635Z,12844.00
2019-05-25T13:19:36.563Z,12348.00
2019-05-25T13:20:36.583Z,12148.00
2019-05-25T13:22:29.527Z,12776.00
2019-05-25T13:23:29.541Z,12732.00
2019-05-25T13:25:22.468Z,11392.00
2019-05-25T13:26:22.481Z,10720.00
2019-05-25T13:28:15.415Z,9540.00
2019-05-25T13:29:15.437Z,9604.00
2019-05-25T13:31:11.718Z,9908.00
2019-05-25T13:32:08.369Z,10124.00
2019-05-25T13:34:01.296Z,10032.00
2019-05-25T13:35:01.329Z,9760.00
2019-05-25T13:36:54.244Z,9132.00
2019-05-25T13:37:54.257Z,9028.00
2019-05-25T13:39:47.178Z,8448.00
2019-05-25T13:40:47.194Z,8184.00
2019-05-25T13:42:40.152Z,7712.00
2019-05-25T13:43:40.155Z,7220.00
2019-05-25T13:45:33.064Z,5696.00
2019-05-25T13:46:33.113Z,4828.00
2019-05-25T13:48:25.996Z,4812.00
2019-05-25T13:49:26.008Z,4888.00
2019-05-25T13:51:18.935Z,4424.00
2019-05-25T13:52:18.949Z,4292.00
2019-05-25T13:54:11.873Z,4496.00
2019-05-25T13:55:11.889Z,4516.00
2019-05-25T13:57:04.814Z,4516.00
2019-05-25T13:58:04.825Z,4720.00
2019-05-25T13:59:57.745Z,5028.00
2019-05-25T14:00:57.762Z,5160.00
2019-05-25T14:02:50.688Z,5572.00
2019-05-25T14:03:50.698Z,6272.00
2019-05-25T14:05:43.626Z,7708.00
2019-05-25T14:06:43.635Z,7580.00
2019-05-25T14:08:36.570Z,6672.00
2019-05-25T14:09:36.572Z,6284.00
2019-05-25T14:11:29.503Z,5904.00
2019-05-25T14:12:29.515Z,5504.00
2019-05-25T14:14:24.542Z,4656.00
2019-05-25T14:15:22.454Z,4556.00
2019-05-25T14:17:15.382Z,4796.00
2019-05-25T14:18:15.394Z,4996.00
2019-05-25T14:20:08.331Z,5212.00
2019-05-25T14:21:08.351Z,4932.00
2019-05-25T14:23:02.131Z,4428.00
2019-05-25T14:24:01.334Z,4472.00
2019-05-25T14:25:54.208Z,4580.00
2019-05-25T14:26:54.219Z,4764.00
2019-05-25T14:28:47.151Z,5020.00
2019-05-25T14:29:47.158Z,5352.00
2019-05-25T14:31:45.678Z,5580.00
2019-05-25T14:32:40.260Z,5424.00
2019-05-25T14:34:33.013Z,4648.00
2019-05-25T14:35:33.048Z,4492.00
2019-05-25T14:37:25.956Z,4552.00
2019-05-25T14:38:25.967Z,4540.00
2019-05-25T14:40:18.918Z,4452.00
2019-05-25T14:41:18.921Z,4428.00
2019-05-25T14:43:11.876Z,4720.00
2019-05-25T14:44:11.879Z,5224.00
2019-05-25T14:46:04.844Z,6124.00
2019-05-25T14:47:04.818Z,6164.00
2019-05-25T14:48:57.797Z,6656.00
2019-05-25T14:49:57.765Z,6592.00
2019-05-25T14:51:50.773Z,5952.00
2019-05-25T14:52:50.702Z,5124.00
2019-05-25T14:54:43.624Z,4524.00
2019-05-25T14:55:43.640Z,4564.00
2019-05-25T14:57:36.567Z,4700.00
2019-05-25T14:58:36.629Z,4848.00
2019-05-25T15:00:29.499Z,5052.00
2019-05-25T15:01:29.515Z,5004.00
2019-05-25T15:03:22.450Z,4832.00
2019-05-25T15:04:22.463Z,4736.00
2019-05-25T15:06:15.575Z,4304.00
2019-05-25T15:07:15.610Z,4376.00
2019-05-25T15:09:08.514Z,4652.00
2019-05-25T15:10:08.524Z,4760.00
2019-05-25T15:12:01.475Z,5276.00
2019-05-25T15:13:01.466Z,5380.00
2019-05-25T15:14:54.377Z,5564.00
2019-05-25T15:15:54.395Z,5116.00
2019-05-25T15:17:47.322Z,4336.00
2019-05-25T15:18:47.333Z,4108.00
2019-05-25T15:20:40.305Z,4084.00
2019-05-25T15:21:40.334Z,4056.00
2019-05-25T15:23:33.194Z,4220.00
2019-05-25T15:24:33.203Z,4340.00
2019-05-25T15:26:26.132Z,4772.00
2019-05-25T15:27:26.140Z,5272.00
2019-05-25T15:29:19.059Z,6600.00
2019-05-25T15:30:19.078Z,7248.00
2019-05-25T15:32:20.066Z,8096.00
2019-05-25T15:33:12.056Z,8740.00
2019-05-25T15:35:04.972Z,9228.00
2019-05-25T15:36:04.991Z,9216.00
2019-05-25T15:37:57.912Z,8928.00
2019-05-25T15:38:57.922Z,8948.00
2019-05-25T15:40:50.842Z,8736.00
2019-05-25T15:41:50.866Z,8328.00
2019-05-25T15:43:43.788Z,7444.00
2019-05-25T15:44:43.801Z,7452.00
2019-05-25T15:46:36.726Z,7624.00
2019-05-25T15:47:36.781Z,7960.00
2019-05-25T15:49:33.162Z,8464.00
2019-05-25T15:50:29.676Z,8268.00
2019-05-25T15:52:22.602Z,7948.00
2019-05-25T15:53:22.613Z,7948.00
2019-05-25T15:55:15.540Z,7940.00
2019-05-25T15:56:15.551Z,7992.00
2019-05-25T15:58:08.479Z,7640.00
2019-05-25T15:59:08.492Z,7288.00
2019-05-25T16:01:01.418Z,6964.00
2019-05-25T16:02:01.434Z,6884.00
2019-05-25T16:03:54.364Z,6928.00
2019-05-25T16:04:54.375Z,7248.00
2019-05-25T16:06:47.302Z,7212.00
2019-05-25T16:07:47.314Z,6816.00
2019-05-25T16:09:40.243Z,6620.00
2019-05-25T16:10:40.300Z,6752.00
2019-05-25T16:12:33.187Z,7076.00
2019-05-25T16:13:33.197Z,6792.00
2019-05-25T16:15:26.620Z,5844.00
2019-05-25T16:16:30.130Z,5296.00
2019-05-25T16:18:20.051Z,4948.00
2019-05-25T16:19:20.064Z,4568.00
2019-05-25T16:21:12.989Z,4664.00
2019-05-25T16:22:13.006Z,4500.00
2019-05-25T16:24:08.069Z,3944.00
2019-05-25T16:25:05.955Z,3788.00
2019-05-25T16:26:58.874Z,3348.00
2019-05-25T16:27:58.897Z,3204.00
2019-05-25T16:29:52.302Z,3104.00
2019-05-25T16:30:52.313Z,3032.00
2019-05-25T16:33:10.791Z,3092.00
2019-05-25T16:33:45.250Z,3188.00
2019-05-25T16:35:38.170Z,3468.00
2019-05-25T16:36:38.186Z,3544.00
2019-05-25T16:38:31.113Z,4064.00
2019-05-25T16:39:31.122Z,4328.00
2019-05-25T16:41:24.040Z,4780.00
2019-05-25T16:42:24.056Z,4868.00
2019-05-25T16:44:17.476Z,4680.00
2019-05-25T16:45:17.486Z,4456.00
2019-05-25T16:47:10.419Z,4340.00
2019-05-25T16:48:10.426Z,4212.00
2019-05-25T16:50:03.349Z,3924.00
2019-05-25T16:51:03.361Z,3804.00
2019-05-25T16:52:56.294Z,3820.00
2019-05-25T16:53:56.311Z,3896.00
2019-05-25T16:55:49.225Z,3920.00
2019-05-25T16:56:49.241Z,3944.00
2019-05-25T16:58:42.166Z,3912.00
2019-05-25T16:59:42.174Z,3940.00
2019-05-25T17:01:47.628Z,4048.00
2019-05-25T17:02:35.108Z,4204.00
2019-05-25T17:04:28.035Z,4400.00
2019-05-25T17:05:28.052Z,4684.00
2019-05-25T17:07:20.973Z,4792.00
2019-05-25T17:08:20.985Z,4568.00
2019-05-25T17:10:13.904Z,4084.00
2019-05-25T17:11:13.919Z,3900.00
2019-05-25T17:13:07.342Z,3440.00
2019-05-25T17:14:07.352Z,3196.00
2019-05-25T17:16:00.275Z,2976.00
2019-05-25T17:17:00.291Z,2924.00
2019-05-25T17:18:54.719Z,2924.00
2019-05-25T17:19:54.713Z,2840.00
2019-05-25T17:21:47.635Z,2836.00
2019-05-25T17:22:47.653Z,2948.00
2019-05-25T17:24:40.573Z,3132.00
2019-05-25T17:25:40.582Z,3264.00
2019-05-25T17:27:34.507Z,3500.00
2019-05-25T17:28:34.518Z,3536.00
2019-05-25T17:30:27.436Z,3696.00
2019-05-25T17:31:27.452Z,3752.00
2019-05-25T17:33:20.379Z,3816.00
2019-05-25T17:34:20.387Z,3780.00
2019-05-25T17:36:13.504Z,3756.00